Time;durP1;ratioP1;P1;durP2;ratioP2;P2;SDS_P1;SDS_P2;PMS_P1;PMS_P2;Temp;Humidity;BMP_temperature;BMP_pressure;BME280_temperature;BME280_humidity;BME280_pressure;Samples;Min_cycle;Max_cycle;Signal;HPM_P1;HPM_P2
2021/12/28 00:01:17;;;;;;;6.78;2.63;;;;;;;2.72;94.32;95998.28;5019989;28;20472;-55
2021/12/28 00:03:45;;;;;;;11.23;3.20;;;;;;;2.54;94.13;95993.88;5023723;28;20479;-57
2021/12/28 00:06:14;;;;;;;17.63;3.00;;;;;;;2.41;94.50;95991.47;5019745;28;20064;-58
2021/12/28 00:08:41;;;;;;;6.15;2.65;;;;;;;2.53;94.98;95988.78;5026118;28;20610;-58
2021/12/28 00:11:09;;;;;;;6.40;3.20;;;;;;;2.66;95.47;95991.22;5028436;28;20037;-58
2021/12/28 00:13:37;;;;;;;5.70;2.67;;;;;;;2.84;95.86;95990.22;5027108;28;20041;-58
2021/12/28 00:18:37;;;;;;;9.57;3.50;;;;;;;3.47;95.94;95988.72;5026160;28;20049;-58
2021/12/28 00:21:06;;;;;;;11.68;4.40;;;;;;;3.82;95.58;95985.03;5025668;28;20045;-59
2021/12/28 00:23:39;;;;;;;11.43;3.53;;;;;;;3.87;95.22;95977.06;5026773;28;20045;-57
2021/12/28 00:26:10;;;;;;;11.50;3.65;;;;;;;4.08;94.71;95971.22;5024880;28;20061;-58
2021/12/28 00:28:38;;;;;;;11.02;3.83;;;;;;;4.18;94.12;95971.38;5026223;28;20049;-57
2021/12/28 00:31:06;;;;;;;8.60;2.67;;;;;;;4.32;93.70;95968.38;5021023;28;20057;-58
2021/12/28 00:33:33;;;;;;;9.35;3.03;;;;;;;4.31;93.39;95966.75;5022856;28;20072;-57
2021/12/28 00:36:00;;;;;;;6.60;2.35;;;;;;;4.37;93.17;95963.88;5025243;28;20052;-57
2021/12/28 00:38:28;;;;;;;10.18;2.08;;;;;;;4.51;93.43;95953.63;5025503;28;20103;-58
2021/12/28 00:40:58;;;;;;;8.63;1.95;;;;;;;4.39;93.04;95958.28;5024186;28;20045;-58
2021/12/28 00:43:27;;;;;;;4.43;1.27;;;;;;;4.34;93.10;95952.84;5022410;28;20053;-57
2021/12/28 00:45:54;;;;;;;6.45;1.88;;;;;;;4.31;93.40;95948.78;5023270;28;20049;-56
2021/12/28 00:48:21;;;;;;;7.60;1.85;;;;;;;4.19;92.94;95951.56;5025382;28;20509;-58
2021/12/28 00:50:49;;;;;;;6.30;1.60;;;;;;;4.39;93.40;95942.22;5025083;28;20099;-57
2021/12/28 00:53:15;;;;;;;7.25;1.80;;;;;;;4.38;92.69;95943.25;5025679;28;20041;-55
2021/12/28 00:55:42;;;;;;;9.90;2.13;;;;;;;4.46;92.84;95942.81;5023153;28;20091;-58
2021/12/28 00:58:08;;;;;;;6.80;1.45;;;;;;;4.55;92.53;95945.88;5026553;28;20045;-58
2021/12/28 01:00:37;;;;;;;8.57;1.83;;;;;;;4.75;91.72;95948.00;5017986;28;20042;-57
2021/12/28 01:03:05;;;;;;;11.30;2.03;;;;;;;4.68;91.76;95940.16;5025225;28;20103;-58
2021/12/28 01:05:34;;;;;;;8.23;1.73;;;;;;;4.78;91.46;95939.47;5024410;28;20046;-58
2021/12/28 01:08:01;;;;;;;10.77;1.77;;;;;;;4.86;91.36;95940.91;5025012;28;20669;-58
2021/12/28 01:10:39;;;;;;;13.77;2.50;;;;;;;4.82;91.14;95929.88;5026612;28;20520;-58
2021/12/28 01:13:06;;;;;;;9.60;2.03;;;;;;;4.88;91.41;95927.25;5027879;28;20053;-58
2021/12/28 01:15:33;;;;;;;10.23;1.63;;;;;;;5.04;91.36;95920.97;5026826;28;20072;-57
2021/12/28 01:17:59;;;;;;;12.10;2.47;;;;;;;5.25;90.02;95934.63;5029338;28;20681;-58
2021/12/28 01:20:27;;;;;;;8.18;1.77;;;;;;;5.34;89.55;95940.31;5026534;28;20048;-56
2021/12/28 01:22:54;;;;;;;9.93;2.17;;;;;;;5.33;89.58;95936.84;5028594;28;20461;-58
2021/12/28 01:25:21;;;;;;;9.70;2.35;;;;;;;5.30;89.43;95928.47;5029385;28;20045;-57
2021/12/28 01:27:48;;;;;;;12.43;2.28;;;;;;;5.28;89.27;95918.00;5028460;28;20053;-56
2021/12/28 01:30:19;;;;;;;8.25;1.77;;;;;;;5.25;89.80;95906.97;5028832;28;20037;-57
2021/12/28 01:32:46;;;;;;;10.10;2.30;;;;;;;5.33;89.26;95911.88;5029720;28;20056;-57
2021/12/28 01:35:14;;;;;;;9.85;1.90;;;;;;;5.37;88.83;95907.59;5028002;28;20045;-57
2021/12/28 01:37:42;;;;;;;6.45;1.10;;;;;;;5.32;88.87;95900.34;5028571;28;20048;-58
2021/12/28 01:40:12;;;;;;;7.03;1.38;;;;;;;5.33;88.76;95906.50;5028829;28;20050;-58
2021/12/28 01:42:54;;;;;;;5.43;1.40;;;;;;;5.30;89.23;95905.13;5028056;28;20048;-55
2021/12/28 01:45:40;;;;;;;9.30;1.60;;;;;;;5.30;89.15;95905.13;5027172;28;20042;-61
2021/12/28 01:48:09;;;;;;;8.75;1.50;;;;;;;5.23;89.47;95898.38;5028005;28;20651;-59
2021/12/28 01:50:36;;;;;;;6.93;1.50;;;;;;;5.26;89.33;95900.50;5028147;28;20045;-57
2021/12/28 01:53:06;;;;;;;8.50;1.95;;;;;;;5.37;88.89;95888.81;5028346;28;20440;-58
2021/12/28 01:55:35;;;;;;;5.63;1.33;;;;;;;5.36;88.60;95883.69;5027523;28;20038;-58
2021/12/28 01:58:02;;;;;;;8.10;1.30;;;;;;;5.35;88.36;95882.91;5028450;28;20037;-58
2021/12/28 02:00:29;;;;;;;13.25;1.70;;;;;;;5.33;88.44;95885.84;5028395;28;20056;-58
2021/12/28 02:02:56;;;;;;;8.82;1.58;;;;;;;5.36;88.46;95860.38;5029800;28;20073;-58
2021/12/28 02:05:26;;;;;;;8.00;1.50;;;;;;;5.26;88.71;95860.25;5025950;28;20057;-58
2021/12/28 02:07:53;;;;;;;4.72;1.23;;;;;;;5.20;88.89;95862.91;5027596;28;20045;-58
2021/12/28 02:10:19;;;;;;;5.82;1.17;;;;;;;5.28;88.68;95850.91;5033056;28;20127;-58
2021/12/28 02:12:46;;;;;;;8.40;1.75;;;;;;;5.34;88.11;95844.50;5017932;28;20041;-58
2021/12/28 02:15:15;;;;;;;9.95;1.92;;;;;;;5.30;88.28;95848.78;5027237;28;20046;-58
2021/12/28 02:17:42;;;;;;;9.85;1.80;;;;;;;5.26;88.54;95853.03;5028108;28;20036;-58
2021/12/28 02:20:15;;;;;;;8.82;1.35;;;;;;;5.29;88.33;95835.59;5027782;28;20029;-58
2021/12/28 02:22:42;;;;;;;5.13;1.30;;;;;;;5.19;88.46;95837.16;5027573;28;20060;-56
2021/12/28 02:25:12;;;;;;;9.88;2.03;;;;;;;5.16;88.50;95834.16;5028256;28;20048;-55
2021/12/28 02:27:39;;;;;;;6.32;1.15;;;;;;;5.17;88.38;95833.88;5027226;28;20060;-56
2021/12/28 02:30:10;;;;;;;9.52;1.73;;;;;;;5.18;88.18;95826.66;5027878;28;20056;-58
2021/12/28 02:32:42;;;;;;;13.50;1.70;;;;;;;5.14;88.58;95823.69;5027393;28;20052;-58
2021/12/28 02:35:13;;;;;;;12.27;2.13;;;;;;;5.14;88.38;95817.50;5025918;28;20053;-57
2021/12/28 02:37:39;;;;;;;8.00;1.42;;;;;;;5.10;88.60;95811.03;5027100;28;20040;-57
2021/12/28 02:40:08;;;;;;;5.65;1.20;;;;;;;5.14;88.27;95814.81;5027395;28;20050;-58
2021/12/28 02:42:35;;;;;;;9.57;1.30;;;;;;;5.21;88.02;95812.75;5027296;28;20598;-58
2021/12/28 02:45:20;;;;;;;9.43;1.73;;;;;;;5.19;87.89;95804.94;5027375;28;20045;-58
2021/12/28 02:47:47;;;;;;;7.80;1.50;;;;;;;5.20;88.27;95789.66;5026761;28;20064;-58
2021/12/28 02:50:20;;;;;;;11.93;1.77;;;;;;;5.14;88.39;95785.31;5024218;28;20044;-58
2021/12/28 02:52:46;;;;;;;7.57;1.48;;;;;;;5.08;88.14;95787.13;5027044;28;20501;-58
2021/12/28 02:55:18;;;;;;;5.50;1.13;;;;;;;5.05;88.59;95788.47;5026274;28;20054;-58
2021/12/28 02:57:47;;;;;;;6.63;1.52;;;;;;;5.09;88.38;95788.78;5027137;28;20069;-58
2021/12/28 03:00:48;;;;;;;8.13;1.92;;;;;;;5.14;88.12;95778.06;5026763;28;20042;-58
2021/12/28 03:03:20;;;;;;;14.15;2.00;;;;;;;5.33;86.92;95788.41;5023673;28;20049;-58
2021/12/28 03:05:50;;;;;;;7.93;1.35;;;;;;;5.37;87.08;95788.69;5026022;28;20763;-58
2021/12/28 03:08:20;;;;;;;7.63;1.50;;;;;;;5.34;86.97;95780.09;5026778;28;20485;-56
2021/12/28 03:10:48;;;;;;;4.93;1.53;;;;;;;5.40;86.53;95775.56;5026557;28;20052;-58
2021/12/28 03:13:18;;;;;;;6.53;1.70;;;;;;;5.41;86.28;95773.69;5026222;28;20076;-57
2021/12/28 03:15:44;;;;;;;6.65;0.98;;;;;;;5.44;86.21;95765.13;5028695;28;20119;-58
2021/12/28 03:18:12;;;;;;;5.50;1.17;;;;;;;5.41;86.13;95762.94;5027208;28;20042;-58
2021/12/28 03:20:39;;;;;;;7.03;1.88;;;;;;;5.37;86.31;95764.53;5026746;28;20067;-58
2021/12/28 03:23:06;;;;;;;6.57;1.17;;;;;;;5.46;85.73;95763.00;5027204;28;20536;-58
2021/12/28 03:25:32;;;;;;;5.63;1.35;;;;;;;5.45;85.30;95748.75;5025960;28;20057;-57
2021/12/28 03:28:03;;;;;;;10.48;1.58;;;;;;;5.49;85.15;95751.72;5027138;28;20451;-56
2021/12/28 03:30:29;;;;;;;9.27;1.50;;;;;;;5.50;85.48;95748.00;5041168;28;20505;-55
2021/12/28 03:32:56;;;;;;;4.75;1.27;;;;;;;5.55;85.01;95737.28;5027414;28;20048;-57
2021/12/28 03:35:23;;;;;;;9.02;1.10;;;;;;;5.61;84.90;95740.81;5026716;28;20048;-58
2021/12/28 03:37:50;;;;;;;5.10;1.38;;;;;;;5.51;85.30;95736.19;5026663;28;20040;-57
2021/12/28 03:40:17;;;;;;;9.20;1.75;;;;;;;5.52;85.10;95739.66;5023552;28;20056;-55
2021/12/28 03:42:44;;;;;;;6.18;1.55;;;;;;;5.51;85.31;95736.19;5026305;28;20103;-55
2021/12/28 03:45:12;;;;;;;6.35;1.55;;;;;;;5.54;85.01;95741.03;5025885;28;20045;-58
2021/12/28 03:47:40;;;;;;;12.93;2.17;;;;;;;5.51;85.34;95730.81;5025418;28;20052;-57
2021/12/28 03:50:08;;;;;;;7.60;1.50;;;;;;;5.43;85.94;95734.00;5025936;28;20037;-58
2021/12/28 03:52:35;;;;;;;8.82;1.40;;;;;;;5.38;86.06;95721.34;5025072;28;20041;-58
2021/12/28 03:55:03;;;;;;;6.57;1.10;;;;;;;5.28;86.47;95718.59;5026348;28;20041;-55
2021/12/28 03:57:29;;;;;;;5.93;1.35;;;;;;;5.30;86.50;95719.94;5023854;28;20033;-57
2021/12/28 03:59:56;;;;;;;8.10;2.47;;;;;;;5.32;86.09;95714.31;5024550;28;20056;-57
2021/12/28 04:02:23;;;;;;;7.68;1.45;;;;;;;5.28;86.52;95726.66;5028361;28;20057;-58
2021/12/28 04:04:50;;;;;;;8.73;1.30;;;;;;;5.27;86.94;95725.81;5024349;28;20099;-58
2021/12/28 04:07:20;;;;;;;7.53;1.27;;;;;;;5.28;86.70;95726.66;5026304;28;20048;-58
2021/12/28 04:12:21;;;;;;;7.25;1.40;;;;;;;5.20;86.77;95723.38;5025593;28;20500;-58
2021/12/28 04:14:48;;;;;;;10.98;2.03;;;;;;;5.26;86.61;95710.81;5025055;28;20037;-58
2021/12/28 04:17:15;;;;;;;2.47;0.80;;;;;;;5.26;86.63;95718.84;5025729;28;20045;-58
2021/12/28 04:19:42;;;;;;;5.18;1.35;;;;;;;5.29;86.51;95718.34;5025399;28;20055;-58
2021/12/28 04:22:08;;;;;;;6.90;1.77;;;;;;;5.30;86.75;95709.22;5025756;28;20501;-58
2021/12/28 04:24:35;;;;;;;8.32;1.20;;;;;;;5.30;86.14;95709.22;5025624;28;20045;-58
2021/12/28 04:27:21;;;;;;;3.80;1.55;;;;;;;5.27;86.27;95706.25;5017978;28;20041;-58
2021/12/28 04:29:48;;;;;;;6.38;1.48;;;;;;;5.28;86.23;95711.38;5017788;28;20043;-58
2021/12/28 04:32:14;;;;;;;7.95;1.23;;;;;;;5.28;86.26;95707.88;5026123;28;20041;-56
2021/12/28 04:34:41;;;;;;;6.05;1.55;;;;;;;5.34;85.96;95706.81;5026281;28;20045;-58
2021/12/28 04:37:08;;;;;;;5.45;0.93;;;;;;;5.33;86.15;95700.66;5024903;28;20056;-57
2021/12/28 04:39:36;;;;;;;4.35;1.33;;;;;;;5.41;85.74;95698.53;5040974;28;20049;-57
2021/12/28 04:42:03;;;;;;;7.55;1.02;;;;;;;5.47;85.27;95700.19;5025196;28;20532;-56
2021/12/28 04:44:29;;;;;;;4.20;1.20;;;;;;;5.50;85.30;95698.84;5025118;28;20049;-57
2021/12/28 04:46:56;;;;;;;4.30;1.08;;;;;;;5.54;85.50;95692.72;5025654;28;20037;-58
2021/12/28 04:49:25;;;;;;;7.85;1.55;;;;;;;5.42;85.93;95694.78;5026023;28;20705;-56
2021/12/28 04:51:52;;;;;;;8.52;1.20;;;;;;;5.50;85.27;95696.16;5024588;28;20068;-57
2021/12/28 04:54:19;;;;;;;8.63;1.35;;;;;;;5.51;85.44;95695.09;5024867;28;20056;-59
2021/12/28 04:56:47;;;;;;;7.53;1.60;;;;;;;5.58;84.75;95699.19;5027970;28;20041;-58
2021/12/28 04:59:15;;;;;;;4.25;1.08;;;;;;;5.66;84.52;95689.00;5025523;28;20033;-55
2021/12/28 05:01:44;;;;;;;3.50;0.75;;;;;;;5.70;84.55;95682.84;5024737;28;20053;-58
2021/12/28 05:04:11;;;;;;;3.83;1.23;;;;;;;5.70;84.45;95685.53;5019014;28;20080;-57
2021/12/28 05:06:38;;;;;;;5.32;1.00;;;;;;;5.71;84.77;95683.63;5024950;28;20085;-56
2021/12/28 05:09:08;;;;;;;6.00;0.82;;;;;;;5.77;84.26;95674.53;5023812;28;20033;-57
2021/12/28 05:11:35;;;;;;;2.80;0.82;;;;;;;5.86;83.83;95675.66;5024706;28;20037;-57
2021/12/28 05:14:04;;;;;;;4.55;0.60;;;;;;;5.89;83.72;95671.63;5025595;28;20049;-58
2021/12/28 05:16:33;;;;;;;2.67;0.70;;;;;;;6.03;82.77;95676.50;5025187;28;20732;-58
2021/12/28 05:19:04;;;;;;;1.98;0.50;;;;;;;6.06;83.13;95678.69;5023907;28;20042;-58
2021/12/28 05:21:31;;;;;;;4.68;1.02;;;;;;;5.98;83.56;95664.66;5022932;28;20042;-58
2021/12/28 05:23:58;;;;;;;3.58;1.08;;;;;;;6.01;83.32;95666.00;5025452;28;20045;-58
2021/12/28 05:26:24;;;;;;;3.15;1.00;;;;;;;5.94;83.77;95658.19;5025116;28;20056;-58
2021/12/28 05:28:51;;;;;;;3.00;0.45;;;;;;;5.99;83.69;95660.91;5015714;28;20049;-58
2021/12/28 05:31:18;;;;;;;4.28;1.10;;;;;;;5.98;83.99;95656.59;5023770;28;20045;-57
2021/12/28 05:33:45;;;;;;;3.97;0.82;;;;;;;5.95;84.40;95659.03;5025457;28;20045;-57
2021/12/28 05:36:12;;;;;;;4.00;0.98;;;;;;;5.98;84.25;95656.59;5024590;28;20049;-58
2021/12/28 05:38:39;;;;;;;5.32;1.02;;;;;;;5.98;84.61;95656.59;5025025;28;20049;-56
2021/12/28 05:41:06;;;;;;;2.92;0.73;;;;;;;5.98;84.57;95647.75;5025053;28;20045;-58
2021/12/28 05:43:32;;;;;;;3.25;0.85;;;;;;;5.99;84.61;95646.66;5022786;28;21711;-58
2021/12/28 05:45:59;;;;;;;6.65;0.73;;;;;;;6.00;84.49;95642.91;5025041;28;20045;-57
2021/12/28 05:48:26;;;;;;;2.15;0.90;;;;;;;6.02;84.65;95648.84;5024450;28;20034;-58
2021/12/28 05:50:52;;;;;;;5.43;1.17;;;;;;;5.99;84.80;95639.44;5022401;28;20046;-58
2021/12/28 05:53:19;;;;;;;1.58;0.80;;;;;;;6.02;85.38;95639.97;5025512;28;20053;-57
2021/12/28 05:55:46;;;;;;;1.60;0.70;;;;;;;5.99;85.14;95644.81;5024808;28;20567;-57
2021/12/28 05:58:13;;;;;;;5.03;0.88;;;;;;;5.91;86.31;95645.31;5027179;28;20037;-59
2021/12/28 06:00:40;;;;;;;1.65;0.82;;;;;;;5.84;86.68;95639.38;5029359;28;20408;-57
2021/12/28 06:03:07;;;;;;;4.65;0.85;;;;;;;5.83;86.82;95652.00;5028833;28;20052;-56
2021/12/28 06:05:33;;;;;;;1.95;1.00;;;;;;;5.85;86.91;95649.03;5026946;28;20390;-55
2021/12/28 06:08:00;;;;;;;2.40;1.00;;;;;;;5.79;87.21;95640.16;5029015;28;20040;-57
2021/12/28 06:10:27;;;;;;;5.30;1.17;;;;;;;5.78;86.94;95632.38;5025148;28;20046;-58
2021/12/28 06:12:54;;;;;;;4.45;0.88;;;;;;;5.75;87.63;95633.69;5022418;28;20412;-58
2021/12/28 06:15:21;;;;;;;2.28;0.98;;;;;;;5.81;87.22;95635.34;5026426;28;20045;-62
2021/12/28 06:17:48;;;;;;;1.83;0.70;;;;;;;5.80;87.63;95636.44;5024714;28;20045;-61
2021/12/28 06:20:15;;;;;;;2.38;0.95;;;;;;;5.75;87.55;95641.75;5027329;28;20056;-62
2021/12/28 06:22:42;;;;;;;4.90;1.20;;;;;;;5.70;88.09;95634.50;5027125;28;20045;-62
2021/12/28 06:25:12;;;;;;;2.63;0.82;;;;;;;5.68;88.30;95622.41;5028522;28;20656;-62
2021/12/28 06:27:39;;;;;;;4.60;1.05;;;;;;;5.67;88.02;95636.91;5026430;28;20041;-61
2021/12/28 06:30:06;;;;;;;3.47;1.05;;;;;;;5.73;87.61;95609.00;5022251;28;20046;-61
2021/12/28 06:32:33;;;;;;;2.65;1.17;;;;;;;5.77;87.41;95625.38;5026229;28;20505;-61
2021/12/28 06:34:59;;;;;;;1.98;1.10;;;;;;;5.81;87.31;95616.53;5028394;28;20045;-62
2021/12/28 06:37:26;;;;;;;6.75;1.45;;;;;;;5.82;87.47;95612.78;5027422;28;20037;-61
2021/12/28 06:39:52;;;;;;;3.83;1.60;;;;;;;5.72;87.44;95610.88;5028062;28;20049;-61
2021/12/28 06:42:19;;;;;;;4.68;1.58;;;;;;;5.72;87.33;95607.41;5027395;28;20528;-62
2021/12/28 06:44:47;;;;;;;3.05;1.27;;;;;;;5.72;87.50;95620.81;5027871;28;20048;-62
2021/12/28 06:47:14;;;;;;;2.75;1.15;;;;;;;5.77;86.90;95610.09;5025627;28;20053;-61
2021/12/28 06:49:41;;;;;;;4.18;1.67;;;;;;;5.76;86.94;95602.28;5026469;28;20037;-61
2021/12/28 06:52:07;;;;;;;3.97;1.50;;;;;;;5.80;86.81;95606.06;5027713;28;20037;-61
2021/12/28 06:54:37;;;;;;;5.07;2.00;;;;;;;5.82;87.03;95618.16;5026386;28;20045;-61
2021/12/28 06:57:07;;;;;;;2.70;1.33;;;;;;;5.86;86.67;95627.28;5020743;28;20041;-59
2021/12/28 06:59:43;;;;;;;2.92;1.52;;;;;;;5.85;86.81;95614.13;5022759;28;20408;-61
2021/12/28 07:02:11;;;;;;;3.72;1.50;;;;;;;5.77;87.33;95610.09;5031790;28;20048;-60
2021/12/28 07:04:38;;;;;;;4.75;1.88;;;;;;;5.75;87.29;95612.22;5026965;28;20045;-60
2021/12/28 07:07:05;;;;;;;2.83;1.50;;;;;;;5.77;87.33;95626.19;5027272;28;20037;-60
2021/12/28 07:09:32;;;;;;;3.67;1.77;;;;;;;5.77;87.48;95623.50;5027463;28;20049;-60
2021/12/28 07:12:00;;;;;;;3.35;1.35;;;;;;;5.84;87.53;95621.41;5026418;28;20045;-59
2021/12/28 07:14:28;;;;;;;3.33;1.85;;;;;;;5.81;87.64;95616.53;5015421;28;20073;-61
2021/12/28 07:16:56;;;;;;;3.50;1.60;;;;;;;5.82;87.90;95612.00;5026105;28;20050;-60
2021/12/28 07:19:23;;;;;;;3.85;1.40;;;;;;;5.88;87.47;95610.91;5027427;28;20677;-60
2021/12/28 07:21:49;;;;;;;2.85;1.48;;;;;;;5.88;87.25;95607.41;5022885;28;20056;-61
2021/12/28 07:24:16;;;;;;;3.35;1.60;;;;;;;5.96;87.25;95606.91;5021793;28;20049;-60
2021/12/28 07:26:43;;;;;;;2.50;1.30;;;;;;;5.96;87.12;95601.53;5024885;28;20523;-60
2021/12/28 07:29:10;;;;;;;4.07;1.85;;;;;;;5.93;87.33;95608.22;5022453;28;20049;-60
2021/12/28 07:31:37;;;;;;;3.95;1.77;;;;;;;5.93;87.55;95610.91;5024842;28;20045;-60
2021/12/28 07:34:04;;;;;;;4.00;1.80;;;;;;;5.97;87.59;95613.91;5024398;28;20183;-61
2021/12/28 07:36:31;;;;;;;3.25;1.60;;;;;;;6.03;87.18;95615.53;5025201;28;20042;-59
2021/12/28 07:38:57;;;;;;;5.38;1.70;;;;;;;5.99;87.84;95615.25;5023499;28;20037;-60
2021/12/28 07:41:24;;;;;;;3.30;1.70;;;;;;;6.02;88.02;95623.84;5025244;28;20057;-61
2021/12/28 07:43:51;;;;;;;2.97;1.67;;;;;;;6.05;87.66;95615.28;5023703;28;20444;-61
2021/12/28 07:46:18;;;;;;;2.85;1.35;;;;;;;6.12;87.04;95613.16;5025723;28;20033;-62
2021/12/28 07:48:44;;;;;;;2.15;1.23;;;;;;;6.09;87.17;95611.78;5022697;28;20046;-61
2021/12/28 07:51:11;;;;;;;3.28;1.83;;;;;;;6.10;87.15;95613.41;5023073;28;20416;-61
2021/12/28 07:53:37;;;;;;;3.83;1.65;;;;;;;6.12;87.49;95621.22;5026757;28;20049;-56
2021/12/28 07:56:04;;;;;;;3.40;1.33;;;;;;;6.55;88.32;95606.69;5035617;28;20243;-55
2021/12/28 07:58:31;;;;;;;4.32;1.20;;;;;;;6.87;85.42;95614.50;5023823;28;20048;-57
2021/12/28 08:00:58;;;;;;;2.58;0.80;;;;;;;7.31;83.17;95603.34;5022633;28;20094;-53
2021/12/28 08:03:25;;;;;;;2.40;0.85;;;;;;;7.10;83.74;95611.47;5023481;28;20044;-52
2021/12/28 08:05:53;;;;;;;2.92;1.02;;;;;;;7.32;82.96;95603.06;5019819;28;20052;-54
2021/12/28 08:08:19;;;;;;;1.30;0.80;;;;;;;7.26;82.34;95617.63;5019578;28;21031;-54
2021/12/28 08:10:47;;;;;;;0.82;0.70;;;;;;;7.14;83.49;95617.91;5023303;28;20057;-51
2021/12/28 08:13:14;;;;;;;2.35;0.52;;;;;;;7.14;83.43;95620.59;5025917;28;20984;-52
2021/12/28 08:15:40;;;;;;;1.85;0.68;;;;;;;7.18;83.31;95628.97;5024030;28;20048;-52
2021/12/28 08:18:09;;;;;;;1.85;0.60;;;;;;;7.37;82.79;95632.66;5023023;28;20124;-54
2021/12/28 08:20:37;;;;;;;2.28;0.80;;;;;;;7.05;84.13;95636.53;5020296;28;20034;-53
2021/12/28 08:23:05;;;;;;;3.53;0.80;;;;;;;7.03;84.50;95634.09;5026768;28;20649;-56
2021/12/28 08:25:32;;;;;;;2.30;0.95;;;;;;;6.76;85.42;95637.91;5017742;28;20041;-57
2021/12/28 08:28:02;;;;;;;2.35;0.98;;;;;;;6.94;85.56;95649.19;5022050;28;20052;-55
2021/12/28 08:30:29;;;;;;;1.27;0.63;;;;;;;6.94;85.30;95656.44;5022927;28;20043;-54
2021/12/28 08:32:56;;;;;;;1.63;0.75;;;;;;;6.79;85.96;95658.06;5018420;28;20053;-62
2021/12/28 08:35:22;;;;;;;3.22;1.20;;;;;;;6.74;86.65;95656.19;5023213;28;20064;-63
2021/12/28 08:37:49;;;;;;;1.52;0.80;;;;;;;6.61;87.51;95656.72;5025288;28;20048;-61
2021/12/28 08:40:17;;;;;;;2.58;1.15;;;;;;;6.43;88.66;95658.06;5031685;28;20049;-61
2021/12/28 08:42:44;;;;;;;2.63;1.10;;;;;;;6.43;88.83;95660.75;5024200;28;20049;-61
2021/12/28 08:45:11;;;;;;;2.55;1.08;;;;;;;6.38;88.91;95651.59;5024359;28;20048;-61
2021/12/28 08:47:38;;;;;;;3.83;1.10;;;;;;;6.38;89.16;95648.91;5023486;28;20599;-60
2021/12/28 08:50:08;;;;;;;1.70;0.98;;;;;;;6.44;89.47;95651.59;5021777;28;20053;-61
2021/12/28 08:52:36;;;;;;;1.13;0.77;;;;;;;6.48;89.18;95650.00;5009152;28;20634;-62
2021/12/28 08:55:05;;;;;;;1.60;0.90;;;;;;;6.52;89.34;95648.38;5021488;28;20057;-62
2021/12/28 08:57:32;;;;;;;2.80;1.20;;;;;;;6.57;88.72;95643.03;5008737;28;20049;-61
2021/12/28 08:59:59;;;;;;;2.47;0.98;;;;;;;6.63;88.60;95652.69;5016599;28;20038;-61
2021/12/28 09:02:25;;;;;;;2.13;0.90;;;;;;;6.73;88.35;95656.44;5024021;28;20055;-61
2021/12/28 09:04:52;;;;;;;2.03;0.90;;;;;;;6.79;88.28;95663.47;5021616;28;20049;-62
2021/12/28 09:07:19;;;;;;;1.00;0.60;;;;;;;6.83;88.07;95669.91;5021272;28;20037;-62
2021/12/28 09:09:50;;;;;;;1.90;0.73;;;;;;;6.80;88.47;95670.44;5018392;28;20215;-62
2021/12/28 09:12:17;;;;;;;2.17;0.88;;;;;;;6.78;88.90;95672.59;5014946;28;20074;-62
2021/12/28 09:14:43;;;;;;;1.50;0.68;;;;;;;6.84;88.87;95666.13;5020937;28;20047;-61
2021/12/28 09:17:10;;;;;;;2.13;1.10;;;;;;;6.85;88.35;95675.00;5022021;28;20041;-61
2021/12/28 09:19:37;;;;;;;2.97;1.08;;;;;;;6.99;88.30;95673.38;5026114;28;20041;-62
2021/12/28 09:22:04;;;;;;;1.92;0.88;;;;;;;6.96;88.70;95673.13;5030311;28;20781;-61
2021/12/28 09:24:32;;;;;;;1.67;0.80;;;;;;;6.98;88.80;95673.66;5023079;28;20160;-61
2021/12/28 09:27:10;;;;;;;1.50;0.73;;;;;;;6.90;89.31;95669.63;5035837;28;20049;-61
2021/12/28 09:29:37;;;;;;;1.77;0.65;;;;;;;6.99;88.97;95676.09;5028979;28;20042;-60
2021/12/28 09:32:04;;;;;;;2.25;0.90;;;;;;;6.84;89.65;95686.84;5026362;28;20052;-61
2021/12/28 09:34:31;;;;;;;3.25;0.90;;;;;;;6.80;89.56;95694.66;5025461;28;20045;-61
2021/12/28 09:36:58;;;;;;;2.08;1.00;;;;;;;6.83;89.72;95693.31;5027529;28;20042;-61
2021/12/28 09:39:28;;;;;;;1.77;1.00;;;;;;;6.88;89.95;95683.34;5026441;28;20068;-61
2021/12/28 09:41:59;;;;;;;2.45;0.95;;;;;;;6.91;89.91;95684.69;5027634;28;20131;-61
2021/12/28 09:44:27;;;;;;;2.13;0.90;;;;;;;6.93;90.26;95697.88;5031668;28;20524;-60
2021/12/28 09:46:54;;;;;;;2.25;1.00;;;;;;;7.01;89.97;95700.03;5032469;28;20048;-60
2021/12/28 09:49:21;;;;;;;2.15;1.02;;;;;;;7.02;90.09;95702.47;5015392;28;20040;-61
2021/12/28 09:51:48;;;;;;;3.65;0.90;;;;;;;7.14;89.82;95701.34;5024981;28;20041;-62
2021/12/28 09:54:15;;;;;;;1.00;0.80;;;;;;;7.20;89.94;95708.38;5035518;28;20048;-62
2021/12/28 09:56:42;;;;;;;1.75;0.80;;;;;;;7.28;89.57;95707.81;5033202;28;20041;-61
2021/12/28 09:59:09;;;;;;;2.10;1.00;;;;;;;7.36;89.63;95700.25;5036231;28;20069;-62
2021/12/28 10:01:36;;;;;;;1.48;0.77;;;;;;;7.41;89.46;95714.50;5026545;28;20071;-62
2021/12/28 10:04:03;;;;;;;4.85;0.88;;;;;;;7.63;88.89;95717.97;5024935;28;20076;-62
2021/12/28 10:06:30;;;;;;;1.63;0.95;;;;;;;7.68;88.54;95713.34;5029391;28;20055;-62
2021/12/28 10:09:20;;;;;;;1.75;0.90;;;;;;;7.76;88.51;95703.91;5016523;28;20049;-61
2021/12/28 10:11:50;;;;;;;1.05;0.68;;;;;;;7.82;89.00;95710.09;5020710;28;20045;-61
2021/12/28 10:14:21;;;;;;;1.60;0.77;;;;;;;7.86;88.79;95713.03;5016442;28;20042;-62
2021/12/28 10:16:49;;;;;;;1.20;0.60;;;;;;;7.99;88.59;95714.34;5025360;28;20056;-61
2021/12/28 10:19:33;;;;;;;0.40;0.35;;;;;;;8.18;87.89;95715.31;5025639;28;20129;-61
2021/12/28 10:22:25;;;;;;;1.70;0.85;;;;;;;8.42;87.06;95711.16;5026427;28;20099;-62
2021/12/28 10:24:55;;;;;;;1.58;0.55;;;;;;;8.56;87.28;95711.38;5021123;28;20053;-61
2021/12/28 10:27:24;;;;;;;2.33;0.57;;;;;;;8.61;86.39;95711.31;5026126;28;20041;-61
2021/12/28 10:29:52;;;;;;;1.05;0.60;;;;;;;8.69;86.12;95724.22;5025704;28;20041;-61
2021/12/28 10:32:25;;;;;;;1.42;0.70;;;;;;;8.80;85.71;95710.66;5026912;28;20057;-61
2021/12/28 10:34:57;;;;;;;3.38;0.68;;;;;;;8.85;85.79;95702.53;5024790;28;20052;-61
2021/12/28 10:37:28;;;;;;;0.93;0.47;;;;;;;8.94;85.64;95703.53;5039098;28;20052;-62
2021/12/28 10:39:58;;;;;;;0.93;0.60;;;;;;;9.10;85.86;95697.97;5026156;28;20050;-62
2021/12/28 10:42:46;;;;;;;1.15;0.60;;;;;;;9.14;85.86;95700.94;5024814;28;20057;-62
2021/12/28 10:45:26;;;;;;;0.95;0.50;;;;;;;9.22;85.33;95705.72;5025401;28;20048;-63
2021/12/28 10:47:54;;;;;;;1.20;0.50;;;;;;;9.04;86.58;95709.94;5022415;28;20132;-62
2021/12/28 10:50:26;;;;;;;0.40;0.30;;;;;;;9.14;85.85;95709.03;5025402;28;20556;-62
2021/12/28 10:53:23;;;;;;;0.95;0.40;;;;;;;9.09;86.12;95705.28;5025800;28;20049;-61
2021/12/28 10:55:58;;;;;;;1.10;0.40;;;;;;;9.17;86.09;95700.34;5017395;28;20060;-64
2021/12/28 10:58:27;;;;;;;2.55;0.77;;;;;;;9.32;85.85;95700.22;5039047;28;20052;-61
2021/12/28 11:00:55;;;;;;;1.88;0.50;;;;;;;9.24;86.52;95701.66;5034654;28;20041;-64
2021/12/28 11:03:30;;;;;;;2.28;0.52;;;;;;;9.30;86.72;95697.00;5025340;28;20522;-64
2021/12/28 11:05:59;;;;;;;0.50;0.40;;;;;;;9.35;86.64;95691.56;5025700;28;20057;-63
2021/12/28 11:08:28;;;;;;;0.90;0.50;;;;;;;9.35;86.45;95685.34;5030835;28;20694;-63
2021/12/28 11:10:58;;;;;;;1.33;0.60;;;;;;;9.33;86.97;95688.31;5026853;28;20053;-63
2021/12/28 11:13:28;;;;;;;0.50;0.40;;;;;;;9.33;87.13;95682.13;5018290;28;20041;-62
2021/12/28 11:15:57;;;;;;;1.35;0.55;;;;;;;9.36;87.01;95687.75;5017259;28;20520;-61
2021/12/28 11:18:33;;;;;;;0.60;0.30;;;;;;;9.38;86.89;95684.78;5025067;28;20633;-61
2021/12/28 11:21:25;;;;;;;1.20;0.43;;;;;;;9.49;86.39;95686.28;5024860;28;20053;-61
2021/12/28 11:23:53;;;;;;;;;;;;;;;9.47;87.21;95688.44;5027467;28;20052;-61
2021/12/28 11:26:32;;;;;;;0.47;0.32;;;;;;;9.55;86.90;95678.91;5034901;28;19925;-60
2021/12/28 11:29:13;;;;;;;0.20;0.20;;;;;;;9.52;86.59;95674.09;5025235;28;20037;-60
2021/12/28 11:31:44;;;;;;;;;;;;;;;9.49;86.38;95672.78;5025875;28;20516;-60
2021/12/28 11:34:14;;;;;;;0.63;0.28;;;;;;;9.46;87.18;95670.63;5024076;28;19964;-61
2021/12/28 11:36:42;;;;;;;1.38;0.35;;;;;;;9.46;86.97;95678.75;5024535;28;20037;-63
2021/12/28 11:39:17;;;;;;;0.95;0.30;;;;;;;9.44;86.83;95672.81;5019380;28;20129;-63
2021/12/28 11:41:46;;;;;;;0.98;0.38;;;;;;;9.31;87.36;95676.19;5024334;28;20137;-62
2021/12/28 11:44:14;;;;;;;1.58;0.30;;;;;;;9.45;86.66;95669.03;5024107;28;20049;-63
2021/12/28 11:46:41;;;;;;;0.50;0.20;;;;;;;9.55;86.55;95673.50;5021457;28;20048;-62
2021/12/28 11:49:10;;;;;;;2.75;0.70;;;;;;;9.36;85.87;95663.44;5024090;28;20782;-64
2021/12/28 11:51:37;;;;;;;4.30;1.48;;;;;;;9.28;86.51;95665.97;5022938;28;20049;-62
2021/12/28 11:54:10;;;;;;;2.45;0.30;;;;;;;9.48;85.83;95663.03;5020091;28;20037;-61